Time;durP1;ratioP1;P1;durP2;ratioP2;P2;SDS_P1;SDS_P2;PMS_P1;PMS_P2;Temp;Humidity;BMP_temperature;BMP_pressure;BME280_temperature;BME280_humidity;BME280_pressure;Samples;Min_cycle;Max_cycle;Signal;HPM_P1;HPM_P2
2023/05/07 00:00:28;;;;;;;2.73;1.73;;;17.70;99.90;;;;;;4995071;28;21040;-83
2023/05/07 00:02:53;;;;;;;2.70;1.90;;;17.70;99.90;;;;;;5013928;28;20185;-84
2023/05/07 00:05:19;;;;;;;3.30;1.87;;;17.70;99.90;;;;;;4995486;28;20640;-83
2023/05/07 00:07:46;;;;;;;2.80;1.50;;;17.70;99.90;;;;;;5013452;28;20741;-82
2023/05/07 00:10:12;;;;;;;2.80;1.93;;;17.80;99.90;;;;;;5011964;28;20254;-82
2023/05/07 00:12:38;;;;;;;5.77;1.80;;;17.80;99.90;;;;;;5013374;28;20565;-82
2023/05/07 00:15:05;;;;;;;3.43;1.60;;;17.80;99.90;;;;;;5017724;28;20174;-82
2023/05/07 00:17:33;;;;;;;2.83;1.83;;;17.80;99.90;;;;;;5013062;28;20597;-82
2023/05/07 00:19:59;;;;;;;2.53;1.63;;;17.80;99.90;;;;;;5012839;28;20604;-82
2023/05/07 00:22:25;;;;;;;2.50;1.50;;;17.80;99.90;;;;;;5012855;28;20586;-82
2023/05/07 00:24:51;;;;;;;2.83;1.47;;;17.80;99.90;;;;;;5013030;28;20202;-82
2023/05/07 00:27:16;;;;;;;2.40;1.93;;;17.80;99.90;;;;;;5011237;28;20631;-82
2023/05/07 00:29:42;;;;;;;2.93;1.47;;;17.70;99.90;;;;;;5011743;28;20177;-83
2023/05/07 00:32:08;;;;;;;2.27;1.30;;;17.70;99.90;;;;;;5011507;28;20860;-83
2023/05/07 00:34:34;;;;;;;3.60;1.50;;;17.70;99.90;;;;;;5011857;28;20760;-82
2023/05/07 00:37:00;;;;;;;1.87;1.40;;;17.70;99.90;;;;;;5012154;28;20608;-82
2023/05/07 00:39:26;;;;;;;3.03;1.47;;;17.70;99.90;;;;;;5013116;28;20208;-82
2023/05/07 00:41:52;;;;;;;3.17;1.37;;;17.60;99.90;;;;;;5012535;28;20660;-82
2023/05/07 00:44:18;;;;;;;1.90;1.37;;;17.60;99.90;;;;;;5012899;28;20206;-82
2023/05/07 00:46:44;;;;;;;2.37;1.50;;;17.60;99.90;;;;;;5011104;28;20171;-82
2023/05/07 00:49:11;;;;;;;2.70;1.60;;;17.60;99.90;;;;;;5011493;28;20687;-83
2023/05/07 00:51:37;;;;;;;2.00;1.33;;;17.60;99.90;;;;;;5021028;28;20605;-83
2023/05/07 00:54:03;;;;;;;2.33;1.20;;;17.60;99.90;;;;;;5022806;28;20592;-82
2023/05/07 00:56:29;;;;;;;2.97;1.40;;;17.60;99.90;;;;;;5032349;28;20573;-83
2023/05/07 00:58:55;;;;;;;2.07;1.50;;;17.50;99.90;;;;;;5031762;28;20604;-83
2023/05/07 01:01:21;;;;;;;4.90;1.60;;;17.50;99.90;;;;;;5014528;28;20943;-82
2023/05/07 01:03:47;;;;;;;2.10;1.37;;;17.50;99.90;;;;;;5000691;23;20655;-74
2023/05/07 01:06:29;;;;;;;2.40;1.63;;;17.50;99.90;;;;;;4973285;28;20603;-73
2023/05/07 01:08:57;;;;;;;2.53;1.50;;;17.50;99.90;;;;;;4959056;28;21378;-74
2023/05/07 01:11:23;;;;;;;4.43;1.50;;;17.50;99.90;;;;;;4979043;28;20591;-74
2023/05/07 01:13:50;;;;;;;3.07;1.90;;;17.50;99.90;;;;;;4958760;28;20635;-74
2023/05/07 01:16:16;;;;;;;1.93;1.10;;;17.50;99.90;;;;;;4970582;28;20611;-75
2023/05/07 01:18:42;;;;;;;2.43;1.50;;;17.50;99.90;;;;;;4967298;28;20649;-75
2023/05/07 01:21:11;;;;;;;2.10;1.60;;;17.50;99.90;;;;;;4984583;28;20685;-75
2023/05/07 01:23:38;;;;;;;2.50;1.63;;;17.50;99.90;;;;;;4952962;28;20220;-75
2023/05/07 01:26:03;;;;;;;1.90;1.40;;;17.40;99.90;;;;;;4967902;28;20620;-75
2023/05/07 01:28:32;;;;;;;3.20;1.50;;;17.50;99.90;;;;;;4968667;28;20596;-75
2023/05/07 01:31:03;;;;;;;3.60;1.20;;;17.50;99.90;;;;;;4951763;28;20587;-75
2023/05/07 01:33:31;;;;;;;1.60;1.10;;;17.50;99.90;;;;;;4953670;28;20631;-75
2023/05/07 01:36:00;;;;;;;2.83;1.37;;;17.50;99.90;;;;;;4973977;28;20568;-74
2023/05/07 01:38:28;;;;;;;2.00;1.70;;;17.50;99.90;;;;;;4952580;28;20599;-75
2023/05/07 01:40:54;;;;;;;1.87;1.13;;;17.40;99.90;;;;;;4936155;29;20590;-75
2023/05/07 01:43:20;;;;;;;2.30;1.60;;;17.40;99.90;;;;;;4968269;28;20715;-75
2023/05/07 01:45:47;;;;;;;2.30;1.50;;;17.40;99.90;;;;;;4952198;28;21079;-75
2023/05/07 01:48:13;;;;;;;3.80;1.47;;;17.40;99.90;;;;;;4935537;29;20312;-75
2023/05/07 01:50:39;;;;;;;1.80;1.30;;;17.30;99.90;;;;;;4968173;28;20577;-75
2023/05/07 01:53:06;;;;;;;2.97;1.83;;;17.30;99.90;;;;;;4967436;28;20616;-74
2023/05/07 01:55:32;;;;;;;3.87;1.63;;;17.30;99.90;;;;;;4952012;28;20627;-75
2023/05/07 01:57:58;;;;;;;1.90;1.30;;;17.30;99.90;;;;;;4967718;28;21150;-75
2023/05/07 02:00:24;;;;;;;3.83;1.10;;;17.30;99.90;;;;;;4968097;28;20670;-75
2023/05/07 02:02:49;;;;;;;2.10;1.20;;;17.30;99.90;;;;;;4951071;28;20250;-75
2023/05/07 02:05:25;;;;;;;2.10;1.47;;;17.20;99.90;;;;;;4968065;28;20208;-75
2023/05/07 02:08:05;;;;;;;3.80;2.10;;;17.20;99.90;;;;;;4951727;28;20594;-75
2023/05/07 02:10:31;;;;;;;3.30;1.90;;;17.20;99.90;;;;;;4968115;28;20591;-75
2023/05/07 02:12:58;;;;;;;3.10;1.47;;;17.20;99.90;;;;;;4971339;28;20603;-75
2023/05/07 02:15:23;;;;;;;1.90;1.30;;;17.20;99.90;;;;;;4951472;28;20642;-75
2023/05/07 02:18:09;;;;;;;3.53;1.50;;;17.20;99.90;;;;;;4967895;28;20184;-74
2023/05/07 02:20:35;;;;;;;1.77;1.17;;;17.10;99.90;;;;;;4950868;28;20203;-75
2023/05/07 02:23:02;;;;;;;2.83;1.30;;;17.10;99.90;;;;;;4976713;28;20614;-74
2023/05/07 02:25:29;;;;;;;4.07;1.63;;;17.10;99.90;;;;;;4932142;29;20982;-74
2023/05/07 02:27:55;;;;;;;2.37;1.10;;;17.00;99.90;;;;;;4932602;29;20577;-75
2023/05/07 02:30:26;;;;;;;4.13;1.70;;;17.00;99.90;;;;;;4932239;29;20596;-75
2023/05/07 02:32:54;;;;;;;3.20;1.40;;;17.00;99.90;;;;;;4932364;29;20621;-75
2023/05/07 02:35:20;;;;;;;3.10;1.70;;;17.00;99.90;;;;;;4932058;29;20595;-75
2023/05/07 02:37:46;;;;;;;1.80;1.20;;;16.90;99.90;;;;;;4948296;28;21121;-74
2023/05/07 02:40:13;;;;;;;2.50;1.50;;;16.90;99.90;;;;;;4948253;29;20621;-75
2023/05/07 02:42:38;;;;;;;4.33;1.80;;;16.90;99.90;;;;;;4932170;29;20765;-74
2023/05/07 02:45:05;;;;;;;3.23;1.30;;;16.90;99.90;;;;;;4932255;29;20671;-75
2023/05/07 02:47:30;;;;;;;2.23;1.60;;;16.90;99.90;;;;;;4916093;29;20185;-74
2023/05/07 02:49:58;;;;;;;2.67;1.60;;;16.80;99.90;;;;;;4936557;29;20591;-75
2023/05/07 02:52:23;;;;;;;1.90;1.27;;;16.90;99.90;;;;;;4932902;29;21165;-74
2023/05/07 02:54:49;;;;;;;2.70;1.93;;;16.90;99.90;;;;;;4958934;28;20187;-74
2023/05/07 02:57:15;;;;;;;3.07;1.87;;;16.90;99.90;;;;;;4966797;28;20203;-74
2023/05/07 02:59:42;;;;;;;2.40;1.70;;;16.90;99.90;;;;;;4953060;29;20624;-74
2023/05/07 03:02:07;;;;;;;2.03;1.43;;;16.90;99.90;;;;;;4967084;28;20180;-75
2023/05/07 03:04:33;;;;;;;2.27;1.63;;;16.90;99.90;;;;;;4951485;28;21017;-75
2023/05/07 03:06:59;;;;;;;2.30;1.90;;;16.80;99.90;;;;;;4967444;28;20176;-75
2023/05/07 03:09:24;;;;;;;3.10;1.60;;;16.80;99.90;;;;;;4952580;28;20259;-75
2023/05/07 03:11:51;;;;;;;4.00;1.63;;;16.80;99.90;;;;;;4951468;28;20632;-74
2023/05/07 03:14:16;;;;;;;4.20;1.73;;;16.90;99.90;;;;;;4966800;28;20224;-75
2023/05/07 03:16:42;;;;;;;2.37;1.33;;;16.90;99.90;;;;;;4950969;28;21168;-74
2023/05/07 03:19:08;;;;;;;2.20;1.30;;;16.90;99.90;;;;;;4960206;28;20571;-75
2023/05/07 03:21:34;;;;;;;2.77;2.00;;;16.90;99.90;;;;;;4963459;28;20272;-74
2023/05/07 03:24:00;;;;;;;1.70;1.17;;;16.90;99.90;;;;;;4950817;28;20196;-74
2023/05/07 03:26:26;;;;;;;3.63;1.33;;;16.80;99.90;;;;;;4970956;28;20563;-74
2023/05/07 03:28:52;;;;;;;3.00;1.37;;;16.80;99.90;;;;;;4951063;28;21212;-74
2023/05/07 03:31:18;;;;;;;3.40;1.90;;;16.80;99.90;;;;;;4967186;28;20255;-73
2023/05/07 03:33:55;;;;;;;2.93;1.53;;;16.80;99.90;;;;;;4968642;28;20604;-75
2023/05/07 03:36:21;;;;;;;3.50;1.47;;;16.70;99.90;;;;;;4954966;28;20930;-74
2023/05/07 03:38:48;;;;;;;2.00;1.30;;;16.70;99.90;;;;;;4954636;28;20667;-74
2023/05/07 03:41:18;;;;;;;2.83;1.07;;;16.70;99.90;;;;;;4970260;28;20579;-74
2023/05/07 03:43:45;;;;;;;2.13;1.30;;;16.60;99.90;;;;;;4970422;28;20643;-75
2023/05/07 03:46:12;;;;;;;2.23;1.50;;;16.60;99.90;;;;;;4953375;28;21030;-74
2023/05/07 03:48:38;;;;;;;1.87;1.30;;;16.60;99.90;;;;;;4970493;28;20618;-75
2023/05/07 03:51:05;;;;;;;3.03;1.50;;;16.60;99.90;;;;;;4969699;28;20685;-75
2023/05/07 03:53:32;;;;;;;2.83;1.40;;;16.60;99.90;;;;;;4954167;28;20618;-75
2023/05/07 03:55:58;;;;;;;3.10;1.20;;;16.60;99.90;;;;;;4969966;28;20584;-74
2023/05/07 03:58:24;;;;;;;2.50;1.60;;;16.60;99.90;;;;;;4970078;28;20207;-74
2023/05/07 04:00:52;;;;;;;2.50;1.90;;;16.60;99.90;;;;;;4970148;28;20683;-74
2023/05/07 04:03:23;;;;;;;1.80;1.30;;;16.60;99.90;;;;;;4957427;28;20644;-74
2023/05/07 04:05:49;;;;;;;2.33;1.30;;;16.60;99.90;;;;;;4969730;28;20639;-74
2023/05/07 04:08:15;;;;;;;3.77;1.30;;;16.60;99.90;;;;;;4953745;28;20583;-75
2023/05/07 04:10:45;;;;;;;2.93;1.30;;;16.60;99.90;;;;;;4954002;28;20219;-74
2023/05/07 04:13:12;;;;;;;1.80;1.27;;;16.70;99.90;;;;;;4953986;28;20608;-75
2023/05/07 04:15:38;;;;;;;3.00;1.37;;;16.70;99.90;;;;;;4956825;28;20586;-74
2023/05/07 04:18:07;;;;;;;2.30;1.30;;;16.70;99.90;;;;;;4988920;28;20919;-75
2023/05/07 04:20:36;;;;;;;4.27;1.80;;;16.70;99.90;;;;;;4988603;28;20587;-74
2023/05/07 04:23:03;;;;;;;1.63;1.20;;;16.80;99.90;;;;;;4947491;28;20620;-75
2023/05/07 04:25:29;;;;;;;2.13;1.10;;;16.80;99.90;;;;;;4953582;28;20693;-75
2023/05/07 04:28:01;;;;;;;2.53;1.30;;;16.90;99.90;;;;;;4953783;28;20650;-74
2023/05/07 04:30:29;;;;;;;3.97;1.50;;;16.90;99.90;;;;;;4953135;28;20580;-74
2023/05/07 04:32:56;;;;;;;3.63;1.53;;;17.00;99.90;;;;;;4953341;28;20687;-74
2023/05/07 04:35:23;;;;;;;1.70;1.20;;;17.00;99.90;;;;;;4952975;28;20634;-75
2023/05/07 04:37:49;;;;;;;3.10;1.27;;;17.00;99.90;;;;;;4954530;28;20758;-75
2023/05/07 04:40:15;;;;;;;1.70;1.07;;;17.00;99.90;;;;;;4959574;28;20651;-75
2023/05/07 04:42:42;;;;;;;2.47;1.30;;;17.00;99.90;;;;;;4953069;28;20668;-74
2023/05/07 04:45:10;;;;;;;2.17;1.07;;;17.10;99.90;;;;;;4952291;28;20757;-73
2023/05/07 04:47:37;;;;;;;1.80;1.30;;;17.20;99.90;;;;;;4952974;28;20596;-74
2023/05/07 04:50:03;;;;;;;2.00;1.20;;;17.20;99.90;;;;;;4952527;28;20591;-73
2023/05/07 04:52:28;;;;;;;1.83;1.07;;;17.30;99.90;;;;;;4953069;28;20533;-73
2023/05/07 04:54:54;;;;;;;2.33;1.00;;;17.30;99.90;;;;;;4953256;29;20671;-74
2023/05/07 04:57:20;;;;;;;2.07;1.27;;;17.30;99.90;;;;;;4952294;28;20192;-73
2023/05/07 04:59:46;;;;;;;1.80;1.10;;;17.40;99.90;;;;;;4952839;29;21222;-74
2023/05/07 05:02:11;;;;;;;2.00;1.50;;;17.40;99.90;;;;;;4952354;28;20189;-73
2023/05/07 05:04:38;;;;;;;2.87;1.10;;;17.50;99.90;;;;;;4952668;28;20216;-75
2023/05/07 05:07:04;;;;;;;1.93;1.20;;;17.50;99.90;;;;;;4952094;28;20591;-75
2023/05/07 05:09:30;;;;;;;4.03;1.00;;;17.60;99.90;;;;;;4955964;28;20619;-74
2023/05/07 05:11:56;;;;;;;2.70;1.00;;;17.70;99.90;;;;;;4989062;28;20632;-74
2023/05/07 05:14:22;;;;;;;2.00;0.90;;;17.80;99.90;;;;;;4969679;28;21207;-74
2023/05/07 05:16:48;;;;;;;1.70;0.97;;;17.80;99.90;;;;;;4972050;28;20184;-75
2023/05/07 05:19:14;;;;;;;1.73;1.10;;;17.90;99.90;;;;;;4952590;29;20596;-74
2023/05/07 05:21:40;;;;;;;2.00;0.97;;;17.90;99.90;;;;;;4952272;29;20695;-75
2023/05/07 05:24:08;;;;;;;3.57;1.07;;;18.00;99.90;;;;;;4968160;28;20647;-74
2023/05/07 05:26:34;;;;;;;4.40;1.20;;;18.00;99.90;;;;;;4953598;28;20615;-75
2023/05/07 05:29:01;;;;;;;1.70;0.90;;;18.00;99.90;;;;;;4968051;28;20667;-75
2023/05/07 05:31:28;;;;;;;3.10;1.10;;;18.00;99.90;;;;;;4968382;28;20603;-75
2023/05/07 05:33:54;;;;;;;2.10;1.00;;;18.10;99.90;;;;;;4953334;28;20641;-75
2023/05/07 05:36:20;;;;;;;2.73;1.00;;;18.10;99.90;;;;;;4952248;28;20773;-75
2023/05/07 05:38:50;;;;;;;2.47;1.00;;;18.20;99.90;;;;;;4967800;28;20679;-75
2023/05/07 05:41:16;;;;;;;2.40;0.90;;;18.20;99.90;;;;;;4952551;28;20972;-75
2023/05/07 05:43:42;;;;;;;2.80;1.20;;;18.20;99.90;;;;;;4968085;28;20667;-74
2023/05/07 05:46:11;;;;;;;2.03;1.57;;;18.20;99.90;;;;;;4951518;28;20208;-74
2023/05/07 05:48:37;;;;;;;2.23;0.97;;;18.20;99.90;;;;;;4968308;28;20584;-74
2023/05/07 05:51:04;;;;;;;1.90;1.07;;;18.20;99.90;;;;;;4951553;28;20579;-75
2023/05/07 05:53:30;;;;;;;2.00;0.80;;;18.20;99.90;;;;;;4972477;28;20599;-75
2023/05/07 05:55:55;;;;;;;2.03;0.80;;;18.20;99.90;;;;;;4951248;28;20180;-74
2023/05/07 05:58:21;;;;;;;1.70;1.00;;;18.30;99.90;;;;;;4967602;28;20331;-75
2023/05/07 06:00:53;;;;;;;3.57;0.87;;;18.30;99.90;;;;;;4967928;28;20654;-74
2023/05/07 06:03:22;;;;;;;2.73;0.93;;;18.40;99.90;;;;;;4967609;28;20642;-75
2023/05/07 06:05:48;;;;;;;1.80;0.90;;;18.50;99.90;;;;;;4966966;28;20635;-74
2023/05/07 06:08:14;;;;;;;1.83;1.10;;;18.60;99.90;;;;;;4961033;28;20946;-74
2023/05/07 06:10:40;;;;;;;1.47;0.80;;;18.60;99.90;;;;;;4987243;28;20678;-74
2023/05/07 06:13:07;;;;;;;2.23;0.90;;;18.70;99.90;;;;;;4970379;28;20599;-74
2023/05/07 06:15:35;;;;;;;2.40;1.00;;;18.90;99.90;;;;;;4970981;28;20590;-74
2023/05/07 06:18:05;;;;;;;2.73;0.90;;;19.00;99.90;;;;;;4970754;28;20583;-74
2023/05/07 06:20:31;;;;;;;1.50;0.90;;;19.10;99.90;;;;;;4987182;28;20575;-75
2023/05/07 06:22:59;;;;;;;1.73;0.80;;;19.30;99.90;;;;;;4961179;28;20208;-74
2023/05/07 06:25:25;;;;;;;1.93;1.00;;;19.40;99.90;;;;;;4967679;28;20623;-74
2023/05/07 06:27:51;;;;;;;1.80;0.93;;;19.50;99.90;;;;;;4967112;28;20584;-74
2023/05/07 06:30:16;;;;;;;1.87;1.00;;;19.50;99.90;;;;;;4971536;28;20570;-74
2023/05/07 06:32:42;;;;;;;1.70;0.83;;;19.60;99.90;;;;;;4951174;28;20196;-74
2023/05/07 06:35:09;;;;;;;2.33;1.10;;;19.70;99.90;;;;;;4967665;28;20698;-75
2023/05/07 06:37:42;;;;;;;1.97;1.00;;;19.80;99.90;;;;;;4967232;28;20604;-79
2023/05/07 06:40:11;;;;;;;2.00;0.90;;;19.90;99.90;;;;;;4964576;28;20632;-79
2023/05/07 06:42:39;;;;;;;1.70;1.10;;;20.00;99.90;;;;;;4943133;28;20612;-79
2023/05/07 06:45:24;;;;;;;1.70;0.90;;;20.10;99.90;;;;;;4954140;28;20720;-79
2023/05/07 06:47:52;;;;;;;2.70;1.00;;;20.20;99.90;;;;;;4948398;28;20957;-79
2023/05/07 06:50:18;;;;;;;1.40;0.83;;;20.40;99.90;;;;;;4966887;28;21027;-79
2023/05/07 06:55:26;;;;;;;2.00;0.90;;;20.70;99.90;;;;;;5350487;23;20661;-78
2023/05/07 06:57:52;;;;;;;2.53;0.90;;;21.00;99.90;;;;;;4973782;28;20918;-78
2023/05/07 07:00:20;;;;;;;1.97;1.07;;;21.20;99.90;;;;;;4973457;28;20588;-78
2023/05/07 07:02:51;;;;;;;2.40;0.90;;;21.50;99.90;;;;;;4984107;28;21061;-78
2023/05/07 07:05:20;;;;;;;1.97;0.83;;;21.70;99.90;;;;;;5012644;28;20767;-78
2023/05/07 07:07:52;;;;;;;2.13;0.90;;;22.00;99.90;;;;;;5016420;28;20577;-78
2023/05/07 07:10:22;;;;;;;1.50;0.83;;;22.20;99.90;;;;;;5000068;28;20587;-79
2023/05/07 07:12:49;;;;;;;1.90;1.03;;;22.50;99.90;;;;;;5015250;28;21181;-78
2023/05/07 07:15:16;;;;;;;1.60;0.80;;;22.70;99.90;;;;;;5014219;28;20658;-78
2023/05/07 07:17:42;;;;;;;2.43;0.70;;;23.00;99.90;;;;;;5015834;28;20630;-78
2023/05/07 07:20:08;;;;;;;3.00;0.80;;;23.30;99.90;;;;;;4990619;28;20603;-79
2023/05/07 07:22:34;;;;;;;1.50;0.73;;;23.50;99.90;;;;;;4988607;28;21170;-78
2023/05/07 07:25:00;;;;;;;2.80;0.90;;;23.60;99.90;;;;;;5015512;28;20640;-78
2023/05/07 07:27:26;;;;;;;1.67;0.93;;;23.80;99.90;;;;;;5004229;28;20577;-78
2023/05/07 07:29:52;;;;;;;2.83;0.77;;;24.00;99.90;;;;;;5013430;28;20600;-78
2023/05/07 07:32:18;;;;;;;1.47;0.70;;;24.00;99.90;;;;;;4999429;28;20256;-78
2023/05/07 07:34:44;;;;;;;2.73;0.77;;;24.10;99.90;;;;;;4999979;28;20655;-78
2023/05/07 07:37:11;;;;;;;2.40;0.80;;;24.30;99.90;;;;;;4983742;28;20572;-78
2023/05/07 07:39:40;;;;;;;1.80;0.93;;;24.40;99.90;;;;;;5006193;28;20590;-78
2023/05/07 07:42:07;;;;;;;1.70;0.90;;;24.60;99.90;;;;;;4980757;28;20596;-78
2023/05/07 07:44:33;;;;;;;2.10;0.80;;;24.90;99.90;;;;;;4985726;28;20637;-78
2023/05/07 07:47:04;;;;;;;2.70;0.80;;;25.20;99.90;;;;;;4996505;28;20178;-80
2023/05/07 07:49:31;;;;;;;1.80;1.00;;;25.40;99.90;;;;;;4995626;28;20581;-79
2023/05/07 07:52:01;;;;;;;1.30;0.70;;;25.50;99.90;;;;;;4996739;28;20584;-79
2023/05/07 07:54:29;;;;;;;1.60;0.80;;;25.50;99.90;;;;;;4979813;28;20989;-79
2023/05/07 07:56:55;;;;;;;1.50;0.80;;;25.50;99.90;;;;;;4979684;28;20605;-79
2023/05/07 07:59:21;;;;;;;2.73;0.80;;;25.30;99.90;;;;;;5006222;28;21264;-79
2023/05/07 08:01:50;;;;;;;2.07;0.90;;;25.00;99.90;;;;;;4999199;28;20580;-80
2023/05/07 08:04:16;;;;;;;1.60;1.00;;;24.60;99.90;;;;;;5015507;28;20627;-80
2023/05/07 08:06:42;;;;;;;4.30;1.10;;;24.30;99.90;;;;;;4997963;28;21265;-80
2023/05/07 08:09:09;;;;;;;1.70;1.00;;;24.10;99.90;;;;;;5014115;28;20576;-80
2023/05/07 08:11:36;;;;;;;2.67;0.80;;;24.00;99.90;;;;;;4980893;28;20675;-80
2023/05/07 08:14:03;;;;;;;1.67;0.80;;;24.00;99.90;;;;;;5013500;28;20673;-78
2023/05/07 08:16:29;;;;;;;1.77;0.80;;;24.00;99.90;;;;;;4997047;28;20568;-78
2023/05/07 08:18:55;;;;;;;3.20;0.90;;;23.90;99.90;;;;;;5015671;28;20599;-78
2023/05/07 08:21:21;;;;;;;2.53;1.03;;;23.90;99.90;;;;;;5010883;28;20171;-78
2023/05/07 08:23:47;;;;;;;1.40;0.80;;;24.00;99.90;;;;;;4979520;28;20719;-78
2023/05/07 08:26:13;;;;;;;2.67;0.90;;;24.00;99.90;;;;;;4978560;28;20637;-78
2023/05/07 08:28:39;;;;;;;2.93;0.97;;;24.10;99.90;;;;;;4995515;28;20228;-78
2023/05/07 08:31:05;;;;;;;2.43;0.80;;;24.10;99.90;;;;;;5013292;28;20178;-78
2023/05/07 08:33:34;;;;;;;2.37;0.80;;;24.10;99.90;;;;;;4995039;28;20768;-78
2023/05/07 08:36:00;;;;;;;2.40;1.10;;;24.10;99.90;;;;;;4995634;28;20668;-78
2023/05/07 08:38:27;;;;;;;2.10;1.23;;;24.10;99.90;;;;;;4996734;28;20274;-77
2023/05/07 08:40:53;;;;;;;1.50;0.80;;;24.10;99.90;;;;;;4995660;28;20577;-77
2023/05/07 08:43:21;;;;;;;1.80;0.90;;;24.10;99.90;;;;;;4995375;28;20623;-77
2023/05/07 08:45:53;;;;;;;3.10;0.90;;;24.10;99.90;;;;;;5002537;28;20689;-78
2023/05/07 08:48:21;;;;;;;2.30;0.90;;;24.20;99.90;;;;;;5005799;28;20612;-77
2023/05/07 08:50:54;;;;;;;2.43;1.20;;;24.50;99.90;;;;;;4989485;28;20577;-78
2023/05/07 08:53:20;;;;;;;1.70;0.80;;;24.70;99.90;;;;;;4984407;28;20605;-78
2023/05/07 08:55:47;;;;;;;2.93;1.00;;;24.90;99.90;;;;;;5009890;28;20686;-78
2023/05/07 08:58:13;;;;;;;6.10;0.90;;;25.10;99.90;;;;;;5019055;28;20572;-77
2023/05/07 09:00:41;;;;;;;1.83;0.80;;;25.30;99.90;;;;;;5032181;28;20680;-78
2023/05/07 09:03:07;;;;;;;2.23;0.70;;;25.50;99.90;;;;;;5014690;28;20193;-77
2023/05/07 09:05:35;;;;;;;1.70;0.80;;;25.80;99.90;;;;;;4997130;28;20624;-78
2023/05/07 09:08:06;;;;;;;2.23;0.80;;;26.10;99.90;;;;;;5002103;28;20621;-78
2023/05/07 09:10:35;;;;;;;3.03;0.80;;;26.30;99.90;;;;;;4978112;28;20601;-78
2023/05/07 09:13:03;;;;;;;2.67;1.10;;;26.60;99.90;;;;;;4978138;28;20624;-79
2023/05/07 09:15:29;;;;;;;2.20;1.10;;;26.80;99.90;;;;;;5012016;28;20589;-79
2023/05/07 09:18:01;;;;;;;2.00;0.80;;;26.60;99.90;;;;;;4995235;28;20636;-79
2023/05/07 09:20:30;;;;;;;1.90;0.80;;;26.50;99.90;;;;;;4995642;28;20196;-79
2023/05/07 09:22:56;;;;;;;1.90;0.90;;;26.50;99.90;;;;;;4981998;28;20605;-79
2023/05/07 09:25:32;;;;;;;2.20;0.90;;;26.80;99.90;;;;;;4978740;28;21285;-79
2023/05/07 09:28:01;;;;;;;1.80;0.80;;;27.30;99.90;;;;;;4978749;28;20675;-79
2023/05/07 09:30:29;;;;;;;2.87;0.70;;;27.70;99.90;;;;;;5013377;28;20570;-79
2023/05/07 09:33:00;;;;;;;2.13;0.70;;;28.10;99.90;;;;;;4997486;28;21160;-79
2023/05/07 09:35:27;;;;;;;1.47;0.70;;;28.50;99.90;;;;;;4995826;28;20620;-79
2023/05/07 09:37:58;;;;;;;4.07;0.70;;;29.00;99.90;;;;;;4994001;28;20594;-79
2023/05/07 09:40:29;;;;;;;2.23;0.80;;;29.70;99.90;;;;;;4978399;28;20597;-78
2023/05/07 09:43:10;;;;;;;1.50;0.70;;;30.50;99.90;;;;;;4987175;23;20773;-78
2023/05/07 09:45:37;;;;;;;1.30;0.60;;;31.20;99.90;;;;;;4986831;28;20639;-78
2023/05/07 09:48:07;;;;;;;1.50;0.70;;;31.90;99.90;;;;;;4994137;28;20579;-78
2023/05/07 09:50:40;;;;;;;1.50;0.70;;;32.50;99.90;;;;;;4976974;28;20911;-79
2023/05/07 09:53:06;;;;;;;2.23;0.70;;;33.00;99.90;;;;;;4983283;28;20612;-79
2023/05/07 09:55:32;;;;;;;1.97;1.00;;;33.60;98.00;;;;;;5001862;28;20624;-79
2023/05/07 09:57:59;;;;;;;1.50;0.60;;;33.90;94.90;;;;;;5013808;28;20967;-78
2023/05/07 10:00:28;;;;;;;2.40;0.83;;;34.30;94.50;;;;;;5013092;28;20581;-79
2023/05/07 10:03:02;;;;;;;1.40;0.70;;;34.60;93.90;;;;;;5013425;28;20703;-80
2023/05/07 10:05:37;;;;;;;1.40;0.60;;;35.00;93.20;;;;;;5012683;28;20631;-80
2023/05/07 10:08:03;;;;;;;2.23;0.90;;;35.30;92.70;;;;;;5004304;28;21031;-81
2023/05/07 10:10:30;;;;;;;1.70;0.80;;;35.40;90.30;;;;;;5009607;28;20582;-80
2023/05/07 10:12:57;;;;;;;1.97;0.80;;;35.30;82.80;;;;;;4993519;28;20621;-80
2023/05/07 10:15:30;;;;;;;1.40;0.60;;;35.20;84.30;;;;;;4993875;28;20565;-79
2023/05/07 10:17:57;;;;;;;1.50;0.60;;;35.00;81.40;;;;;;4977286;28;20581;-81
2023/05/07 10:20:25;;;;;;;3.13;0.70;;;34.90;81.70;;;;;;4977560;28;20932;-81
2023/05/07 10:22:55;;;;;;;1.80;0.70;;;34.90;82.00;;;;;;4993068;28;21184;-80
2023/05/07 10:25:30;;;;;;;2.40;0.60;;;35.20;84.30;;;;;;4978363;28;20664;-80
2023/05/07 10:28:04;;;;;;;4.40;0.80;;;35.80;84.60;;;;;;4993508;28;20591;-79
2023/05/07 10:31:00;;;;;;;1.30;0.50;;;36.30;82.00;;;;;;4995183;28;20639;-79
2023/05/07 10:33:35;;;;;;;1.40;0.60;;;36.50;75.30;;;;;;4993300;28;20700;-82
2023/05/07 10:36:04;;;;;;;1.70;0.63;;;36.60;72.70;;;;;;4993479;28;20624;-81
2023/05/07 10:38:31;;;;;;;1.87;0.80;;;36.40;70.30;;;;;;4993070;28;20589;-81
2023/05/07 10:40:59;;;;;;;2.90;0.80;;;36.40;70.30;;;;;;4993740;28;20573;-80
2023/05/07 10:43:25;;;;;;;2.40;1.00;;;36.20;68.10;;;;;;4993983;28;20716;-79
2023/05/07 10:46:15;;;;;;;2.60;0.63;;;35.90;67.60;;;;;;5005867;28;20632;-80
2023/05/07 10:49:02;;;;;;;1.90;1.07;;;35.70;67.70;;;;;;5013277;28;20615;-79
2023/05/07 10:51:35;;;;;;;1.47;0.70;;;35.30;65.20;;;;;;4984694;28;20577;-79
2023/05/07 10:54:12;;;;;;;1.67;0.90;;;34.80;63.90;;;;;;4977271;28;20613;-79
2023/05/07 10:56:43;;;;;;;2.17;0.70;;;34.50;65.50;;;;;;4977922;28;21126;-80
2023/05/07 10:59:40;;;;;;;1.90;0.80;;;34.30;65.30;;;;;;4997409;28;20581;-80
2023/05/07 11:02:15;;;;;;;2.10;0.83;;;33.90;59.80;;;;;;4981888;28;20984;-81
2023/05/07 11:05:22;;;;;;;2.07;0.87;;;33.40;62.40;;;;;;4980954;28;20689;-81
2023/05/07 11:08:09;;;;;;;2.30;0.70;;;33.10;57.20;;;;;;5019319;28;20580;-80
2023/05/07 11:10:58;;;;;;;1.83;0.60;;;32.80;62.60;;;;;;4996694;28;20575;-81
2023/05/07 11:13:53;;;;;;;1.70;0.70;;;32.40;59.70;;;;;;4988547;28;20610;-79
2023/05/07 11:16:45;;;;;;;1.60;0.73;;;31.90;60.00;;;;;;4992228;28;20589;-80
2023/05/07 11:19:48;;;;;;;1.90;0.73;;;31.40;61.30;;;;;;4977348;28;20672;-79
2023/05/07 11:22:36;;;;;;;1.40;0.80;;;31.20;58.80;;;;;;4977472;28;20579;-79
2023/05/07 11:25:34;;;;;;;2.47;0.70;;;31.20;63.90;;;;;;4977933;28;20998;-80
2023/05/07 11:28:10;;;;;;;1.60;0.70;;;31.30;65.50;;;;;;4979685;28;20614;-80
2023/05/07 11:30:42;;;;;;;1.50;0.70;;;31.30;62.50;;;;;;4996668;28;20951;-80
2023/05/07 11:33:10;;;;;;;12.60;7.47;;;30.90;60.90;;;;;;4979890;28;20606;-80
2023/05/07 11:35:37;;;;;;;8.37;4.43;;;30.40;61.00;;;;;;4964065;28;20585;-79
2023/05/07 11:38:05;;;;;;;8.30;4.47;;;30.20;62.80;;;;;;4979617;28;20605;-78
2023/05/07 11:40:33;;;;;;;2.90;1.63;;;30.10;63.90;;;;;;4963935;28;20592;-78
2023/05/07 11:43:09;;;;;;;2.60;0.90;;;29.80;63.40;;;;;;5014051;28;20955;-81
2023/05/07 11:45:36;;;;;;;2.13;0.80;;;29.60;63.90;;;;;;5021756;28;20197;-80
2023/05/07 11:48:02;;;;;;;2.60;0.77;;;29.40;65.10;;;;;;5017000;28;20605;-79
2023/05/07 11:50:28;;;;;;;1.83;0.67;;;29.30;64.50;;;;;;4995494;28;20593;-79
2023/05/07 11:52:54;;;;;;;1.77;0.60;;;29.20;63.10;;;;;;5013712;28;20738;-79
2023/05/07 11:55:20;;;;;;;2.50;0.70;;;29.00;63.80;;;;;;4995480;28;20249;-79
2023/05/07 11:57:46;;;;;;;2.73;0.80;;;28.80;63.60;;;;;;4995208;28;20167;-78
2023/05/07 12:00:15;;;;;;;1.83;0.70;;;28.70;64.00;;;;;;4996208;28;20237;-79
2023/05/07 12:02:42;;;;;;;1.80;0.80;;;28.50;64.50;;;;;;5012892;28;20618;-78
2023/05/07 12:05:07;;;;;;;1.50;0.60;;;28.40;64.70;;;;;;4996030;28;20625;-78
2023/05/07 12:07:34;;;;;;;1.53;0.70;;;28.30;63.80;;;;;;4995200;28;20580;-78
2023/05/07 12:10:05;;;;;;;1.60;0.80;;;28.10;64.60;;;;;;4996018;28;20178;-78
2023/05/07 12:12:30;;;;;;;1.63;0.93;;;28.00;64.70;;;;;;4995074;28;20626;-79
2023/05/07 12:14:56;;;;;;;1.77;0.90;;;27.80;65.00;;;;;;5012986;28;20985;-78
2023/05/07 12:17:22;;;;;;;1.40;0.70;;;27.60;65.00;;;;;;5012779;28;20174;-78
2023/05/07 12:19:48;;;;;;;1.80;0.87;;;27.30;65.20;;;;;;5011772;28;20549;-78
2023/05/07 12:22:13;;;;;;;2.03;0.70;;;27.20;66.20;;;;;;5011394;28;20266;-77
2023/05/07 12:24:56;;;;;;;1.80;0.80;;;27.20;67.20;;;;;;5011674;28;20634;-78
2023/05/07 12:27:22;;;;;;;2.57;0.80;;;27.20;67.30;;;;;;4995145;28;20182;-78
2023/05/07 12:29:49;;;;;;;1.70;0.80;;;27.30;68.00;;;;;;5011082;28;20576;-78
2023/05/07 12:32:21;;;;;;;1.40;0.67;;;27.30;67.60;;;;;;4979149;28;20593;-78
2023/05/07 12:34:49;;;;;;;1.57;0.80;;;27.20;67.30;;;;;;4995037;28;20574;-78
2023/05/07 12:37:15;;;;;;;1.50;0.60;;;27.20;67.20;;;;;;4995218;28;20668;-78
2023/05/07 12:39:48;;;;;;;1.83;0.80;;;27.10;67.10;;;;;;5010871;28;21044;-78
2023/05/07 12:42:25;;;;;;;3.53;1.47;;;27.00;67.80;;;;;;4996149;28;20580;-77
2023/05/07 12:44:52;;;;;;;1.60;0.80;;;27.00;67.40;;;;;;5014292;28;20997;-78
2023/05/07 12:47:17;;;;;;;1.83;0.87;;;27.00;68.40;;;;;;5031909;28;20576;-78
2023/05/07 12:49:45;;;;;;;2.27;1.13;;;27.00;68.70;;;;;;5030883;28;20580;-78
2023/05/07 12:52:11;;;;;;;3.93;1.53;;;26.90;69.00;;;;;;5014349;28;20174;-78
2023/05/07 12:54:38;;;;;;;2.43;0.90;;;26.90;69.50;;;;;;5030562;28;20580;-78
2023/05/07 12:57:08;;;;;;;2.47;0.80;;;26.80;70.20;;;;;;5030879;28;20580;-78